Terminal Aerodrome Forecast
Issued by NWS

Home | Current Version | Previous Version | Text Only | Print | Product List | Glossary On
Versions: 1 2 3 4 5 6 7 8 9 10 11 12 13 14 15 16 17 18 19 20 21 22
000
FTUS42 KGSP 270901 AAD
TAFGMU
TAF AMD
KGMU 270901Z 2709/2806 25006KT P6SM SCT006 OVC015
      TEMPO 2709/2713 OVC006
     FM271400 22006KT P6SM BKN020
     FM271600 22007KT P6SM BKN060
     FM271800 21008KT P6SM BKN060 PROB30 2718/2724 4SM TSRA BKN040CB
     FM280000 19004KT P6SM BKN060=

USA.gov is the U.S. government's official web portal to all federal, state and local government web resources and services.